Terminal Aerodrome Forecast
Issued by NWS

Home | Current Version | Previous Version | Graphics & Text | Print | Product List | Glossary On
Versions: 1 2 3 4 5 6 7 8 9 10 11 12 13 14 15 16 17 18 19 20
046
FTUS43 KIWX 251120
TAFSBN
TAF
KSBN 251120Z 2512/2612 01010KT P6SM OVC006
     FM251600 34013G18KT P6SM OVC025
     FM252300 32010KT P6SM BKN035=

USA.gov is the U.S. government's official web portal to all federal, state and local government web resources and services.